METAR Data
IDs: Format: Raw Decoded Include TAF

Data at: 1015 UTC 28 Jul 2021

KCMA 280955Z 00000KT 9SM OVC007 19/16 A2999 RMK AO2 SLP164 T01940156